Adams, Oklahoma
Current Conditions -  °F | °C
As of 6:55 PM on Wednesday 22 Oct 2014 (Local Time) from KLBL Reporting Station
Clear Clear  
Wind Chill: 70°   Ceiling: Unl
Heat Index: 70°   Visibility: 10mi
Dew Point: 55°   Wind: 16mph
Humidity: 60%   Direction: 140°SE
Pressure: 30.03"   Gusts: 23mph
Location:  36.76°N, 101.08°W
Report Text: KLBL 222355Z AUTO 14014G20KT 10SM CLR 21/13 A3003 RMK AO1 LTG DSNT W 10240 20200 402400130 52003
Loading
Personal Weather Stations






























Interactive Weather Map
Tropical Storm Tracking
New forecast layout! Learn more

10-Day Weather Forecast

Advertisements
Track Severe Weather on mobile